createdAt,value
2023-03-29T00:04:59.578Z,0.25
2023-03-29T00:17:00.079Z,0.08
2023-03-29T00:29:00.563Z,0.01
2023-03-29T00:41:01.374Z,0.00
2023-03-29T00:53:01.385Z,0.33
2023-03-29T01:17:02.378Z,0.00
2023-03-29T01:29:04.966Z,0.00
2023-03-29T01:41:03.672Z,0.40
2023-03-29T01:53:03.662Z,0.00
2023-03-29T02:05:04.124Z,0.50
2023-03-29T02:17:04.553Z,0.61
2023-03-29T02:29:05.010Z,0.07
2023-03-29T02:41:05.411Z,0.01
2023-03-29T02:53:05.875Z,0.00
2023-03-29T03:05:06.365Z,0.02
2023-03-29T03:17:06.819Z,0.00
2023-03-29T03:29:07.208Z,0.00
2023-03-29T03:41:07.739Z,0.02
2023-03-29T03:53:08.184Z,0.23
2023-03-29T04:05:08.581Z,0.00
2023-03-29T04:17:09.052Z,0.02
2023-03-29T04:29:09.524Z,0.02
2023-03-29T04:41:09.957Z,0.02
2023-03-29T04:53:10.411Z,0.00
2023-03-29T05:05:10.859Z,0.00
2023-03-29T05:17:11.304Z,0.25
2023-03-29T05:29:11.750Z,1.51
2023-03-29T05:41:12.202Z,0.09
2023-03-29T05:53:12.658Z,0.04
2023-03-29T06:05:13.120Z,0.31
2023-03-29T06:17:13.692Z,0.26
2023-03-29T06:29:13.993Z,0.54
2023-03-29T06:41:14.495Z,0.14
2023-03-29T06:53:14.908Z,0.70
2023-03-29T07:05:15.383Z,1.43
2023-03-29T07:17:15.805Z,1.58
2023-03-29T07:29:16.292Z,2.28
2023-03-29T07:41:16.721Z,2.30
2023-03-29T07:53:17.194Z,2.81
2023-03-29T08:05:29.234Z,1.72
2023-03-29T08:17:18.055Z,1.89
2023-03-29T08:29:18.616Z,3.04
2023-03-29T08:41:19.012Z,2.41
2023-03-29T08:53:19.440Z,2.81
2023-03-29T09:05:19.878Z,3.80
2023-03-29T09:17:20.455Z,1.62
2023-03-29T09:29:20.805Z,2.34
2023-03-29T09:41:21.228Z,3.20
2023-03-29T09:53:21.703Z,3.65
2023-03-29T10:05:22.159Z,1.66
2023-03-29T10:17:22.609Z,1.30
2023-03-29T10:29:23.034Z,3.07
2023-03-29T10:41:23.494Z,2.33
2023-03-29T10:53:23.978Z,2.49
2023-03-29T11:05:24.432Z,3.09
2023-03-29T11:17:24.886Z,2.27
2023-03-29T11:29:25.327Z,2.71
2023-03-29T11:41:25.737Z,1.72
2023-03-29T11:53:26.199Z,1.09
2023-03-29T12:05:26.647Z,2.29
2023-03-29T12:17:27.126Z,1.57
2023-03-29T12:29:27.577Z,2.58
2023-03-29T12:41:28.030Z,0.88
2023-03-29T12:53:28.474Z,0.92
2023-03-29T13:05:28.975Z,0.27
2023-03-29T13:17:29.378Z,1.68
2023-03-29T13:29:29.843Z,1.14
2023-03-29T13:41:33.078Z,0.31
2023-03-29T13:53:30.882Z,1.09
2023-03-29T14:05:31.194Z,1.04
2023-03-29T14:17:31.738Z,0.92
2023-03-29T14:29:32.179Z,0.87
2023-03-29T14:41:32.577Z,1.07
2023-03-29T14:53:33.005Z,0.24
2023-03-29T15:05:33.509Z,0.71
2023-03-29T15:17:49.447Z,0.72
2023-03-29T15:29:34.352Z,0.11
2023-03-29T15:41:34.799Z,0.28
2023-03-29T15:53:35.328Z,0.24
2023-03-29T16:05:35.726Z,0.55
2023-03-29T16:17:36.227Z,0.18
2023-03-29T16:29:36.640Z,0.00
2023-03-29T16:41:37.116Z,0.17
2023-03-29T16:53:37.513Z,0.22
2023-03-29T17:05:37.995Z,0.11
2023-03-29T17:17:38.481Z,0.01
2023-03-29T17:29:38.902Z,0.02
2023-03-29T17:41:39.329Z,0.03
2023-03-29T17:53:39.793Z,0.17
2023-03-29T18:05:40.336Z,0.10
2023-03-29T18:17:40.732Z,0.06
2023-03-29T18:29:41.287Z,0.11
2023-03-29T18:41:41.610Z,0.13
2023-03-29T18:53:42.085Z,0.13
2023-03-29T19:05:45.261Z,0.14
2023-03-29T19:17:45.709Z,0.35
2023-03-29T19:29:43.404Z,1.40
2023-03-29T19:41:43.857Z,0.60
2023-03-29T19:53:46.545Z,0.35
2023-03-29T20:05:44.791Z,0.17
2023-03-29T20:17:45.378Z,0.09
2023-03-29T20:29:45.682Z,0.16
2023-03-29T20:41:48.846Z,0.46
2023-03-29T20:53:46.673Z,0.79
2023-03-29T21:05:47.047Z,0.58
2023-03-29T21:17:49.769Z,0.40
2023-03-29T21:29:47.945Z,2.03
2023-03-29T21:41:48.362Z,2.78
2023-03-29T21:53:48.833Z,2.75
2023-03-29T22:05:49.289Z,2.90
2023-03-29T22:17:49.783Z,1.63
2023-03-29T22:29:50.291Z,1.45
2023-03-29T22:41:50.653Z,1.59
2023-03-29T22:53:51.081Z,1.76
2023-03-29T23:05:51.617Z,1.77
2023-03-29T23:17:52.057Z,0.78
2023-03-29T23:29:52.433Z,0.16
2023-03-29T23:41:53.027Z,0.42
2023-03-29T23:53:53.501Z,0.59
